sensor_id;sensor_type;location;lat;lon;timestamp;pressure;altitude;pressure_sealevel;temperature;humidity
36190;BME280;22232;50.914;13.858;2024-03-02T00:01:07;96772.66;;;8.43;100.00
36190;BME280;22232;50.914;13.858;2024-03-02T00:03:36;96771.38;;;8.45;100.00
36190;BME280;22232;50.914;13.858;2024-03-02T00:06:04;96774.28;;;8.44;100.00
36190;BME280;22232;50.914;13.858;2024-03-02T00:08:32;96771.38;;;8.45;100.00
36190;BME280;22232;50.914;13.858;2024-03-02T00:11:01;96776.38;;;8.42;100.00
36190;BME280;22232;50.914;13.858;2024-03-02T00:13:32;96770.00;;;8.43;100.00
36190;BME280;22232;50.914;13.858;2024-03-02T00:16:01;96761.72;;;8.39;100.00
36190;BME280;22232;50.914;13.858;2024-03-02T00:18:35;96766.44;;;8.37;100.00
36190;BME280;22232;50.914;13.858;2024-03-02T00:21:06;96768.28;;;8.37;100.00
36190;BME280;22232;50.914;13.858;2024-03-02T00:23:36;96767.34;;;8.43;100.00
36190;BME280;22232;50.914;13.858;2024-03-02T00:26:05;96766.88;;;8.46;100.00
36190;BME280;22232;50.914;13.858;2024-03-02T00:28:36;96769.13;;;8.37;100.00
36190;BME280;22232;50.914;13.858;2024-03-02T00:31:09;96770.63;;;8.33;100.00
36190;BME280;22232;50.914;13.858;2024-03-02T00:34:00;96769.34;;;8.36;100.00
36190;BME280;22232;50.914;13.858;2024-03-02T00:36:33;96762.38;;;8.46;100.00
36190;BME280;22232;50.914;13.858;2024-03-02T00:39:00;96758.47;;;8.37;100.00
36190;BME280;22232;50.914;13.858;2024-03-02T00:41:31;96773.97;;;8.40;100.00
36190;BME280;22232;50.914;13.858;2024-03-02T00:46:29;96769.53;;;8.46;100.00
36190;BME280;22232;50.914;13.858;2024-03-02T00:49:02;96763.72;;;8.49;100.00
36190;BME280;22232;50.914;13.858;2024-03-02T00:51:32;96768.72;;;8.45;100.00
36190;BME280;22232;50.914;13.858;2024-03-02T00:54:09;96771.56;;;8.56;100.00
36190;BME280;22232;50.914;13.858;2024-03-02T00:56:38;96759.06;;;8.56;100.00
36190;BME280;22232;50.914;13.858;2024-03-02T00:59:05;96760.91;;;8.56;100.00
36190;BME280;22232;50.914;13.858;2024-03-02T01:01:33;96757.81;;;8.64;100.00
36190;BME280;22232;50.914;13.858;2024-03-02T01:04:00;96767.03;;;8.56;100.00
36190;BME280;22232;50.914;13.858;2024-03-02T01:06:28;96760.44;;;8.59;100.00
36190;BME280;22232;50.914;13.858;2024-03-02T01:08:56;96758.25;;;8.56;100.00
36190;BME280;22232;50.914;13.858;2024-03-02T01:11:23;96756.63;;;8.55;100.00
36190;BME280;22232;50.914;13.858;2024-03-02T01:13:51;96760.59;;;8.52;100.00
36190;BME280;22232;50.914;13.858;2024-03-02T01:16:22;96752.50;;;8.64;100.00
36190;BME280;22232;50.914;13.858;2024-03-02T01:18:49;96752.94;;;8.56;100.00
36190;BME280;22232;50.914;13.858;2024-03-02T01:21:17;96757.28;;;8.62;100.00
36190;BME280;22232;50.914;13.858;2024-03-02T01:23:45;96755.91;;;8.59;100.00
36190;BME280;22232;50.914;13.858;2024-03-02T01:26:13;96754.63;;;8.62;100.00
36190;BME280;22232;50.914;13.858;2024-03-02T01:28:40;96765.75;;;8.59;100.00
36190;BME280;22232;50.914;13.858;2024-03-02T01:31:08;96763.88;;;8.59;100.00
36190;BME280;22232;50.914;13.858;2024-03-02T01:33:35;96761.16;;;8.54;100.00
36190;BME280;22232;50.914;13.858;2024-03-02T01:36:03;96769.13;;;8.54;100.00
36190;BME280;22232;50.914;13.858;2024-03-02T01:38:31;96764.59;;;8.55;100.00
36190;BME280;22232;50.914;13.858;2024-03-02T01:40:58;96762.69;;;8.50;100.00
36190;BME280;22232;50.914;13.858;2024-03-02T01:43:26;96765.34;;;8.50;100.00
36190;BME280;22232;50.914;13.858;2024-03-02T01:45:53;96767.75;;;8.52;100.00
36190;BME280;22232;50.914;13.858;2024-03-02T01:48:21;96763.50;;;8.50;100.00
36190;BME280;22232;50.914;13.858;2024-03-02T01:50:49;96759.28;;;8.55;100.00
36190;BME280;22232;50.914;13.858;2024-03-02T01:53:16;96756.41;;;8.56;100.00
36190;BME280;22232;50.914;13.858;2024-03-02T01:55:44;96760.44;;;8.59;100.00
36190;BME280;22232;50.914;13.858;2024-03-02T01:58:11;96750.69;;;8.64;100.00
36190;BME280;22232;50.914;13.858;2024-03-02T02:00:39;96751.09;;;8.56;100.00
36190;BME280;22232;50.914;13.858;2024-03-02T02:03:07;96754.31;;;8.58;100.00
36190;BME280;22232;50.914;13.858;2024-03-02T02:05:35;96745.94;;;8.49;100.00
36190;BME280;22232;50.914;13.858;2024-03-02T02:08:03;96751.19;;;8.44;100.00
36190;BME280;22232;50.914;13.858;2024-03-02T02:10:30;96756.72;;;8.43;100.00
36190;BME280;22232;50.914;13.858;2024-03-02T02:12:58;96759.72;;;8.46;100.00
36190;BME280;22232;50.914;13.858;2024-03-02T02:15:28;96761.13;;;8.37;100.00
36190;BME280;22232;50.914;13.858;2024-03-02T02:17:57;96763.34;;;8.40;100.00
36190;BME280;22232;50.914;13.858;2024-03-02T02:20:25;96762.16;;;8.36;100.00
36190;BME280;22232;50.914;13.858;2024-03-02T02:22:59;96761.38;;;8.36;100.00
36190;BME280;22232;50.914;13.858;2024-03-02T02:25:28;96749.81;;;8.42;100.00
36190;BME280;22232;50.914;13.858;2024-03-02T02:27:57;96753.75;;;8.39;100.00
36190;BME280;22232;50.914;13.858;2024-03-02T02:30:30;96750.59;;;8.42;100.00
36190;BME280;22232;50.914;13.858;2024-03-02T02:32:58;96750.28;;;8.39;100.00
36190;BME280;22232;50.914;13.858;2024-03-02T02:35:26;96746.56;;;8.40;100.00
36190;BME280;22232;50.914;13.858;2024-03-02T02:37:55;96749.16;;;8.35;100.00
36190;BME280;22232;50.914;13.858;2024-03-02T02:40:23;96746.41;;;8.30;100.00
36190;BME280;22232;50.914;13.858;2024-03-02T02:42:51;96744.06;;;8.33;100.00
36190;BME280;22232;50.914;13.858;2024-03-02T02:45:21;96742.69;;;8.31;100.00
36190;BME280;22232;50.914;13.858;2024-03-02T02:47:49;96735.19;;;8.27;100.00
36190;BME280;22232;50.914;13.858;2024-03-02T02:50:17;96741.09;;;8.30;100.00
36190;BME280;22232;50.914;13.858;2024-03-02T02:52:44;96741.88;;;8.30;100.00
36190;BME280;22232;50.914;13.858;2024-03-02T02:55:13;96745.59;;;8.29;100.00
36190;BME280;22232;50.914;13.858;2024-03-02T02:57:42;96750.75;;;8.19;100.00
36190;BME280;22232;50.914;13.858;2024-03-02T03:00:11;96751.63;;;8.24;100.00
36190;BME280;22232;50.914;13.858;2024-03-02T03:02:48;96745.50;;;8.24;100.00
36190;BME280;22232;50.914;13.858;2024-03-02T03:05:18;96751.88;;;8.23;100.00
36190;BME280;22232;50.914;13.858;2024-03-02T03:07:45;96752.94;;;8.22;100.00
36190;BME280;22232;50.914;13.858;2024-03-02T03:10:16;96747.03;;;8.20;100.00
36190;BME280;22232;50.914;13.858;2024-03-02T03:12:44;96744.13;;;8.21;100.00
36190;BME280;22232;50.914;13.858;2024-03-02T03:15:12;96746.78;;;8.21;100.00
36190;BME280;22232;50.914;13.858;2024-03-02T03:17:40;96752.44;;;8.25;100.00
36190;BME280;22232;50.914;13.858;2024-03-02T03:20:08;96744.00;;;8.28;100.00
36190;BME280;22232;50.914;13.858;2024-03-02T03:22:39;96743.16;;;8.27;100.00
36190;BME280;22232;50.914;13.858;2024-03-02T03:25:07;96745.28;;;8.25;100.00
36190;BME280;22232;50.914;13.858;2024-03-02T03:27:37;96748.72;;;8.26;100.00
36190;BME280;22232;50.914;13.858;2024-03-02T03:30:05;96740.03;;;8.31;100.00
36190;BME280;22232;50.914;13.858;2024-03-02T03:32:34;96740.19;;;8.24;100.00
36190;BME280;22232;50.914;13.858;2024-03-02T03:35:02;96737.16;;;8.32;100.00
36190;BME280;22232;50.914;13.858;2024-03-02T03:37:30;96738.69;;;8.28;100.00
36190;BME280;22232;50.914;13.858;2024-03-02T03:40:02;96729.09;;;8.27;100.00
36190;BME280;22232;50.914;13.858;2024-03-02T03:42:30;96730.13;;;8.26;100.00
36190;BME280;22232;50.914;13.858;2024-03-02T03:44:58;96728.31;;;8.10;100.00
36190;BME280;22232;50.914;13.858;2024-03-02T03:47:25;96730.69;;;8.11;100.00
36190;BME280;22232;50.914;13.858;2024-03-02T03:49:53;96733.34;;;8.11;100.00
36190;BME280;22232;50.914;13.858;2024-03-02T03:52:20;96734.09;;;8.07;100.00
36190;BME280;22232;50.914;13.858;2024-03-02T03:54:48;96744.72;;;8.07;100.00
36190;BME280;22232;50.914;13.858;2024-03-02T03:57:16;96747.59;;;8.05;100.00
36190;BME280;22232;50.914;13.858;2024-03-02T03:59:44;96746.72;;;8.16;100.00
36190;BME280;22232;50.914;13.858;2024-03-02T04:02:13;96746.56;;;8.23;100.00
36190;BME280;22232;50.914;13.858;2024-03-02T04:04:41;96748.91;;;8.19;100.00
36190;BME280;22232;50.914;13.858;2024-03-02T04:07:08;96745.34;;;8.14;100.00
36190;BME280;22232;50.914;13.858;2024-03-02T04:09:36;96740.84;;;8.14;100.00
36190;BME280;22232;50.914;13.858;2024-03-02T04:12:03;96746.63;;;8.11;100.00
36190;BME280;22232;50.914;13.858;2024-03-02T04:14:31;96751.47;;;8.14;100.00
36190;BME280;22232;50.914;13.858;2024-03-02T04:16:59;96749.59;;;8.15;100.00
36190;BME280;22232;50.914;13.858;2024-03-02T04:19:26;96758.84;;;8.12;100.00
36190;BME280;22232;50.914;13.858;2024-03-02T04:21:54;96761.50;;;8.12;100.00
36190;BME280;22232;50.914;13.858;2024-03-02T04:24:22;96757.84;;;8.13;100.00
36190;BME280;22232;50.914;13.858;2024-03-02T04:26:49;96761.19;;;8.09;100.00
36190;BME280;22232;50.914;13.858;2024-03-02T04:29:17;96767.19;;;8.16;100.00
36190;BME280;22232;50.914;13.858;2024-03-02T04:31:44;96765.81;;;8.13;100.00
36190;BME280;22232;50.914;13.858;2024-03-02T04:34:12;96763.22;;;8.18;100.00
36190;BME280;22232;50.914;13.858;2024-03-02T04:36:39;96771.75;;;8.20;100.00
36190;BME280;22232;50.914;13.858;2024-03-02T04:39:07;96775.78;;;8.23;100.00
36190;BME280;22232;50.914;13.858;2024-03-02T04:41:37;96785.84;;;8.21;100.00
36190;BME280;22232;50.914;13.858;2024-03-02T04:44:04;96782.63;;;8.19;100.00
36190;BME280;22232;50.914;13.858;2024-03-02T04:46:32;96783.91;;;8.16;100.00
36190;BME280;22232;50.914;13.858;2024-03-02T04:48:59;96795.91;;;8.19;100.00
36190;BME280;22232;50.914;13.858;2024-03-02T04:51:27;96797.41;;;8.15;100.00
36190;BME280;22232;50.914;13.858;2024-03-02T04:53:54;96792.91;;;8.15;100.00
36190;BME280;22232;50.914;13.858;2024-03-02T04:56:22;96796.78;;;8.08;100.00
36190;BME280;22232;50.914;13.858;2024-03-02T04:58:52;96797.25;;;8.04;100.00
36190;BME280;22232;50.914;13.858;2024-03-02T05:01:20;96795.16;;;8.07;100.00
36190;BME280;22232;50.914;13.858;2024-03-02T05:03:48;96792.41;;;8.01;100.00
36190;BME280;22232;50.914;13.858;2024-03-02T05:06:15;96797.72;;;8.01;100.00
36190;BME280;22232;50.914;13.858;2024-03-02T05:08:43;96805.13;;;7.99;100.00
36190;BME280;22232;50.914;13.858;2024-03-02T05:11:12;96809.88;;;7.97;100.00
36190;BME280;22232;50.914;13.858;2024-03-02T05:13:59;96817.38;;;8.00;100.00
36190;BME280;22232;50.914;13.858;2024-03-02T05:16:26;96815.75;;;7.99;100.00
36190;BME280;22232;50.914;13.858;2024-03-02T05:18:54;96816.47;;;7.95;100.00
36190;BME280;22232;50.914;13.858;2024-03-02T05:21:21;96833.34;;;7.89;100.00
36190;BME280;22232;50.914;13.858;2024-03-02T05:23:49;96836.66;;;7.96;100.00
36190;BME280;22232;50.914;13.858;2024-03-02T05:26:17;96836.19;;;7.99;100.00
36190;BME280;22232;50.914;13.858;2024-03-02T05:28:45;96833.78;;;7.97;100.00
36190;BME280;22232;50.914;13.858;2024-03-02T05:31:15;96826.84;;;7.96;100.00
36190;BME280;22232;50.914;13.858;2024-03-02T05:33:43;96829.41;;;7.91;100.00
36190;BME280;22232;50.914;13.858;2024-03-02T05:36:10;96836.13;;;7.82;100.00
36190;BME280;22232;50.914;13.858;2024-03-02T05:38:38;96850.06;;;7.89;100.00
36190;BME280;22232;50.914;13.858;2024-03-02T05:41:05;96842.69;;;7.91;100.00
36190;BME280;22232;50.914;13.858;2024-03-02T05:43:33;96845.81;;;7.88;100.00
36190;BME280;22232;50.914;13.858;2024-03-02T05:46:00;96847.59;;;7.99;100.00
36190;BME280;22232;50.914;13.858;2024-03-02T05:48:28;96846.69;;;7.94;100.00
36190;BME280;22232;50.914;13.858;2024-03-02T05:50:56;96849.34;;;7.94;100.00
36190;BME280;22232;50.914;13.858;2024-03-02T05:53:23;96850.88;;;7.90;100.00
36190;BME280;22232;50.914;13.858;2024-03-02T05:55:51;96848.47;;;7.88;100.00
36190;BME280;22232;50.914;13.858;2024-03-02T05:58:22;96855.28;;;7.84;100.00
36190;BME280;22232;50.914;13.858;2024-03-02T06:01:01;96856.56;;;7.81;100.00
36190;BME280;22232;50.914;13.858;2024-03-02T06:03:28;96857.13;;;7.84;100.00
36190;BME280;22232;50.914;13.858;2024-03-02T06:05:56;96857.75;;;7.74;100.00
36190;BME280;22232;50.914;13.858;2024-03-02T06:08:24;96847.03;;;7.69;100.00
36190;BME280;22232;50.914;13.858;2024-03-02T06:10:51;96844.47;;;7.74;100.00
36190;BME280;22232;50.914;13.858;2024-03-02T06:13:19;96846.34;;;7.73;100.00
36190;BME280;22232;50.914;13.858;2024-03-02T06:15:46;96840.34;;;7.66;100.00
36190;BME280;22232;50.914;13.858;2024-03-02T06:18:14;96846.38;;;7.62;100.00
36190;BME280;22232;50.914;13.858;2024-03-02T06:20:41;96851.19;;;7.65;100.00
36190;BME280;22232;50.914;13.858;2024-03-02T06:23:09;96847.50;;;7.66;100.00
36190;BME280;22232;50.914;13.858;2024-03-02T06:25:37;96856.84;;;7.68;100.00
36190;BME280;22232;50.914;13.858;2024-03-02T06:28:05;96867.66;;;7.78;100.00
36190;BME280;22232;50.914;13.858;2024-03-02T06:30:32;96870.56;;;7.77;100.00
36190;BME280;22232;50.914;13.858;2024-03-02T06:33:00;96873.28;;;7.82;100.00
36190;BME280;22232;50.914;13.858;2024-03-02T06:35:27;96881.63;;;7.74;100.00
36190;BME280;22232;50.914;13.858;2024-03-02T06:37:55;96872.03;;;7.73;100.00
36190;BME280;22232;50.914;13.858;2024-03-02T06:40:22;96881.53;;;7.69;100.00
36190;BME280;22232;50.914;13.858;2024-03-02T06:42:50;96882.91;;;7.71;100.00
36190;BME280;22232;50.914;13.858;2024-03-02T06:45:17;96880.84;;;7.73;100.00
36190;BME280;22232;50.914;13.858;2024-03-02T06:47:45;96895.25;;;7.77;100.00
36190;BME280;22232;50.914;13.858;2024-03-02T06:50:50;96894.31;;;7.84;100.00
36190;BME280;22232;50.914;13.858;2024-03-02T06:53:19;96895.91;;;7.85;100.00
36190;BME280;22232;50.914;13.858;2024-03-02T06:55:47;96895.78;;;7.91;100.00
36190;BME280;22232;50.914;13.858;2024-03-02T06:58:14;96897.63;;;7.91;100.00
36190;BME280;22232;50.914;13.858;2024-03-02T07:00:43;96895.78;;;7.91;100.00
36190;BME280;22232;50.914;13.858;2024-03-02T07:03:11;96904.63;;;7.97;100.00
36190;BME280;22232;50.914;13.858;2024-03-02T07:05:39;96897.50;;;7.97;100.00
36190;BME280;22232;50.914;13.858;2024-03-02T07:08:07;96907.66;;;8.00;100.00
36190;BME280;22232;50.914;13.858;2024-03-02T07:10:35;96901.50;;;8.00;100.00
36190;BME280;22232;50.914;13.858;2024-03-02T07:13:02;96903.16;;;8.01;100.00
36190;BME280;22232;50.914;13.858;2024-03-02T07:15:30;96901.75;;;7.98;100.00
36190;BME280;22232;50.914;13.858;2024-03-02T07:18:12;96902.34;;;8.00;100.00
36190;BME280;22232;50.914;13.858;2024-03-02T07:20:40;96907.72;;;8.05;100.00
36190;BME280;22232;50.914;13.858;2024-03-02T07:23:07;96901.63;;;8.05;100.00
36190;BME280;22232;50.914;13.858;2024-03-02T07:25:35;96906.56;;;8.13;100.00
36190;BME280;22232;50.914;13.858;2024-03-02T07:28:06;96916.59;;;8.11;100.00
36190;BME280;22232;50.914;13.858;2024-03-02T07:30:34;96911.28;;;8.11;100.00
36190;BME280;22232;50.914;13.858;2024-03-02T07:33:02;96908.41;;;8.13;100.00
36190;BME280;22232;50.914;13.858;2024-03-02T07:35:29;96921.44;;;8.14;100.00
36190;BME280;22232;50.914;13.858;2024-03-02T07:37:59;96916.28;;;8.08;100.00
36190;BME280;22232;50.914;13.858;2024-03-02T07:40:27;96917.81;;;8.03;100.00
36190;BME280;22232;50.914;13.858;2024-03-02T07:42:54;96930.13;;;8.10;100.00
36190;BME280;22232;50.914;13.858;2024-03-02T07:45:22;96930.69;;;8.12;100.00
36190;BME280;22232;50.914;13.858;2024-03-02T07:47:50;96928.03;;;8.12;100.00
36190;BME280;22232;50.914;13.858;2024-03-02T07:50:17;96940.03;;;8.14;100.00
36190;BME280;22232;50.914;13.858;2024-03-02T07:52:45;96943.03;;;8.18;100.00
36190;BME280;22232;50.914;13.858;2024-03-02T07:55:13;96953.66;;;8.18;100.00
36190;BME280;22232;50.914;13.858;2024-03-02T07:57:40;96951.91;;;8.23;100.00
36190;BME280;22232;50.914;13.858;2024-03-02T08:00:08;96951.31;;;8.21;100.00
36190;BME280;22232;50.914;13.858;2024-03-02T08:02:40;96952.22;;;8.27;100.00
36190;BME280;22232;50.914;13.858;2024-03-02T08:05:08;96956.09;;;8.19;100.00
36190;BME280;22232;50.914;13.858;2024-03-02T08:07:36;96957.69;;;8.20;100.00
36190;BME280;22232;50.914;13.858;2024-03-02T08:10:04;96965.97;;;8.24;100.00
36190;BME280;22232;50.914;13.858;2024-03-02T08:12:31;96959.06;;;8.23;100.00
36190;BME280;22232;50.914;13.858;2024-03-02T08:14:59;96963.19;;;8.31;100.00
36190;BME280;22232;50.914;13.858;2024-03-02T08:17:27;96958.94;;;8.30;100.00
36190;BME280;22232;50.914;13.858;2024-03-02T08:19:54;96961.59;;;8.30;100.00
36190;BME280;22232;50.914;13.858;2024-03-02T08:22:23;96959.72;;;8.30;100.00
36190;BME280;22232;50.914;13.858;2024-03-02T08:24:52;96964.81;;;8.32;100.00
36190;BME280;22232;50.914;13.858;2024-03-02T08:27:20;96973.25;;;8.28;100.00
36190;BME280;22232;50.914;13.858;2024-03-02T08:29:47;96976.84;;;8.34;100.00
36190;BME280;22232;50.914;13.858;2024-03-02T08:32:15;96984.81;;;8.34;100.00
36190;BME280;22232;50.914;13.858;2024-03-02T08:34:44;96968.97;;;8.39;100.00
36190;BME280;22232;50.914;13.858;2024-03-02T08:37:12;96979.22;;;8.36;100.00
36190;BME280;22232;50.914;13.858;2024-03-02T08:39:39;96975.13;;;8.28;100.00
36190;BME280;22232;50.914;13.858;2024-03-02T08:42:07;96979.50;;;8.34;100.00
36190;BME280;22232;50.914;13.858;2024-03-02T08:44:34;96976.78;;;8.46;100.00
36190;BME280;22232;50.914;13.858;2024-03-02T08:47:02;96975.03;;;8.52;100.00
36190;BME280;22232;50.914;13.858;2024-03-02T08:49:30;96967.78;;;8.47;100.00
36190;BME280;22232;50.914;13.858;2024-03-02T08:51:57;96968.13;;;8.50;100.00
36190;BME280;22232;50.914;13.858;2024-03-02T08:54:25;96957.97;;;8.47;100.00
36190;BME280;22232;50.914;13.858;2024-03-02T08:56:52;96956.31;;;8.58;100.00
36190;BME280;22232;50.914;13.858;2024-03-02T08:59:20;96960.41;;;8.66;100.00
36190;BME280;22232;50.914;13.858;2024-03-02T09:01:47;96963.50;;;8.75;100.00
36190;BME280;22232;50.914;13.858;2024-03-02T09:04:15;96964.63;;;8.79;100.00
36190;BME280;22232;50.914;13.858;2024-03-02T09:06:43;96964.41;;;8.97;100.00
36190;BME280;22232;50.914;13.858;2024-03-02T09:09:10;96966.81;;;8.82;100.00
36190;BME280;22232;50.914;13.858;2024-03-02T09:11:38;96974.88;;;9.04;100.00
36190;BME280;22232;50.914;13.858;2024-03-02T09:14:06;96979.81;;;9.12;100.00
36190;BME280;22232;50.914;13.858;2024-03-02T09:16:33;96977.41;;;9.10;100.00
36190;BME280;22232;50.914;13.858;2024-03-02T09:19:01;96975.34;;;9.01;100.00
36190;BME280;22232;50.914;13.858;2024-03-02T09:21:29;96976.84;;;9.08;100.00
36190;BME280;22232;50.914;13.858;2024-03-02T09:23:57;96987.31;;;9.15;100.00
36190;BME280;22232;50.914;13.858;2024-03-02T09:26:25;96985.78;;;9.02;100.00
36190;BME280;22232;50.914;13.858;2024-03-02T09:28:53;96986.72;;;9.13;100.00
36190;BME280;22232;50.914;13.858;2024-03-02T09:31:20;96988.66;;;9.01;100.00
36190;BME280;22232;50.914;13.858;2024-03-02T09:33:48;96997.53;;;8.89;100.00
36190;BME280;22232;50.914;13.858;2024-03-02T09:36:19;96993.97;;;9.01;100.00
36190;BME280;22232;50.914;13.858;2024-03-02T09:38:48;96995.25;;;8.81;100.00
36190;BME280;22232;50.914;13.858;2024-03-02T09:41:15;96991.25;;;8.95;100.00
36190;BME280;22232;50.914;13.858;2024-03-02T09:43:44;96994.72;;;9.13;100.00
36190;BME280;22232;50.914;13.858;2024-03-02T09:46:11;96995.88;;;9.17;100.00
36190;BME280;22232;50.914;13.858;2024-03-02T09:48:39;97000.31;;;9.28;100.00
36190;BME280;22232;50.914;13.858;2024-03-02T09:51:07;96996.28;;;9.26;100.00
36190;BME280;22232;50.914;13.858;2024-03-02T09:53:36;96993.13;;;9.29;100.00
36190;BME280;22232;50.914;13.858;2024-03-02T09:56:03;96991.34;;;9.34;100.00
36190;BME280;22232;50.914;13.858;2024-03-02T09:58:32;96990.03;;;9.37;100.00
36190;BME280;22232;50.914;13.858;2024-03-02T10:00:59;96984.91;;;9.47;100.00
36190;BME280;22232;50.914;13.858;2024-03-02T10:03:28;96986.81;;;9.52;100.00
36190;BME280;22232;50.914;13.858;2024-03-02T10:06:20;96987.53;;;9.64;100.00
36190;BME280;22232;50.914;13.858;2024-03-02T10:08:48;96987.13;;;9.72;100.00
36190;BME280;22232;50.914;13.858;2024-03-02T10:14:13;96983.66;;;9.94;100.00
36190;BME280;22232;50.914;13.858;2024-03-02T10:16:43;96983.56;;;10.05;100.00
36190;BME280;22232;50.914;13.858;2024-03-02T10:19:18;96972.53;;;9.97;100.00
36190;BME280;22232;50.914;13.858;2024-03-02T10:21:47;96977.34;;;10.00;100.00
36190;BME280;22232;50.914;13.858;2024-03-02T10:24:15;96980.47;;;10.14;100.00
36190;BME280;22232;50.914;13.858;2024-03-02T10:26:43;96980.31;;;10.03;100.00
36190;BME280;22232;50.914;13.858;2024-03-02T10:29:11;96968.31;;;10.23;100.00
36190;BME280;22232;50.914;13.858;2024-03-02T10:31:40;96963.50;;;10.42;100.00
36190;BME280;22232;50.914;13.858;2024-03-02T10:34:10;96962.66;;;10.63;100.00
36190;BME280;22232;50.914;13.858;2024-03-02T10:36:41;96955.50;;;10.96;100.00
36190;BME280;22232;50.914;13.858;2024-03-02T10:39:09;96956.28;;;11.29;100.00
36190;BME280;22232;50.914;13.858;2024-03-02T10:41:38;96948.19;;;11.56;100.00
36190;BME280;22232;50.914;13.858;2024-03-02T10:44:09;96941.44;;;11.85;100.00
36190;BME280;22232;50.914;13.858;2024-03-02T10:46:37;96940.19;;;12.03;100.00
36190;BME280;22232;50.914;13.858;2024-03-02T10:49:05;96946.88;;;12.11;100.00
36190;BME280;22232;50.914;13.858;2024-03-02T10:51:35;96939.41;;;12.13;100.00
36190;BME280;22232;50.914;13.858;2024-03-02T10:54:04;96936.00;;;12.38;100.00
36190;BME280;22232;50.914;13.858;2024-03-02T10:56:40;96931.81;;;12.83;100.00
36190;BME280;22232;50.914;13.858;2024-03-02T11:01:38;96938.25;;;12.77;98.03
36190;BME280;22232;50.914;13.858;2024-03-02T11:04:08;96935.00;;;12.54;97.49
36190;BME280;22232;50.914;13.858;2024-03-02T11:06:36;96935.97;;;12.23;99.50
36190;BME280;22232;50.914;13.858;2024-03-02T11:09:07;96931.22;;;12.40;100.00
36190;BME280;22232;50.914;13.858;2024-03-02T11:11:43;96933.28;;;12.23;99.87
36190;BME280;22232;50.914;13.858;2024-03-02T11:14:13;96940.28;;;12.29;100.00
36190;BME280;22232;50.914;13.858;2024-03-02T11:16:42;96929.59;;;12.34;100.00
36190;BME280;22232;50.914;13.858;2024-03-02T11:19:12;96939.44;;;12.18;100.00
36190;BME280;22232;50.914;13.858;2024-03-02T11:21:44;96941.19;;;11.92;100.00
36190;BME280;22232;50.914;13.858;2024-03-02T11:26:49;96925.78;;;12.09;100.00
36190;BME280;22232;50.914;13.858;2024-03-02T11:32:17;96927.78;;;12.55;99.31
36190;BME280;22232;50.914;13.858;2024-03-02T11:34:49;96929.66;;;12.65;99.66
36190;BME280;22232;50.914;13.858;2024-03-02T11:37:18;96934.44;;;12.47;96.99
36190;BME280;22232;50.914;13.858;2024-03-02T11:39:47;96937.47;;;12.81;95.87
36190;BME280;22232;50.914;13.858;2024-03-02T11:42:17;96931.81;;;12.93;92.25
36190;BME280;22232;50.914;13.858;2024-03-02T11:44:46;96929.69;;;12.80;90.20
36190;BME280;22232;50.914;13.858;2024-03-02T11:47:16;96925.16;;;13.06;89.63
36190;BME280;22232;50.914;13.858;2024-03-02T11:49:50;96927.03;;;13.26;92.45
36190;BME280;22232;50.914;13.858;2024-03-02T11:52:22;96930.25;;;13.13;89.27
36190;BME280;22232;50.914;13.858;2024-03-02T11:54:50;96927.00;;;12.90;90.09
36190;BME280;22232;50.914;13.858;2024-03-02T11:57:20;96925.91;;;12.55;93.00
36190;BME280;22232;50.914;13.858;2024-03-02T11:59:50;96929.09;;;12.52;92.08
36190;BME280;22232;50.914;13.858;2024-03-02T12:02:21;96933.91;;;12.45;93.90
36190;BME280;22232;50.914;13.858;2024-03-02T12:04:49;96935.22;;;12.37;93.26
36190;BME280;22232;50.914;13.858;2024-03-02T12:07:21;96936.53;;;12.25;97.08
36190;BME280;22232;50.914;13.858;2024-03-02T12:10:00;96930.06;;;11.63;100.00
36190;BME280;22232;50.914;13.858;2024-03-02T12:12:31;96936.97;;;11.59;100.00
36190;BME280;22232;50.914;13.858;2024-03-02T12:14:58;96938.19;;;11.41;100.00
36190;BME280;22232;50.914;13.858;2024-03-02T12:17:29;96931.63;;;11.16;100.00
36190;BME280;22232;50.914;13.858;2024-03-02T12:19:56;96926.94;;;10.96;100.00
36190;BME280;22232;50.914;13.858;2024-03-02T12:22:24;96926.41;;;10.67;100.00
36190;BME280;22232;50.914;13.858;2024-03-02T12:24:52;96926.19;;;10.74;100.00
36190;BME280;22232;50.914;13.858;2024-03-02T12:27:19;96924.63;;;11.05;100.00
36190;BME280;22232;50.914;13.858;2024-03-02T12:29:48;96922.81;;;11.16;100.00
36190;BME280;22232;50.914;13.858;2024-03-02T12:32:17;96924.63;;;11.05;100.00
36190;BME280;22232;50.914;13.858;2024-03-02T12:34:47;96917.19;;;10.80;100.00
36190;BME280;22232;50.914;13.858;2024-03-02T12:37:15;96915.66;;;10.89;100.00
36190;BME280;22232;50.914;13.858;2024-03-02T12:39:45;96917.31;;;10.63;100.00
36190;BME280;22232;50.914;13.858;2024-03-02T12:42:13;96923.47;;;10.96;100.00
36190;BME280;22232;50.914;13.858;2024-03-02T12:44:41;96912.97;;;11.21;100.00
36190;BME280;22232;50.914;13.858;2024-03-02T12:47:08;96918.13;;;11.33;100.00
36190;BME280;22232;50.914;13.858;2024-03-02T12:49:36;96915.53;;;11.06;100.00
36190;BME280;22232;50.914;13.858;2024-03-02T12:52:04;96921.84;;;10.95;100.00
36190;BME280;22232;50.914;13.858;2024-03-02T12:54:32;96909.22;;;11.17;100.00
36190;BME280;22232;50.914;13.858;2024-03-02T12:57:02;96911.13;;;11.22;100.00
36190;BME280;22232;50.914;13.858;2024-03-02T12:59:29;96912.00;;;11.33;100.00
36190;BME280;22232;50.914;13.858;2024-03-02T13:01:57;96915.84;;;11.10;100.00
36190;BME280;22232;50.914;13.858;2024-03-02T13:04:26;96916.28;;;10.96;100.00
36190;BME280;22232;50.914;13.858;2024-03-02T13:06:54;96913.72;;;11.12;100.00
36190;BME280;22232;50.914;13.858;2024-03-02T13:09:24;96917.53;;;11.21;100.00